| ตารางข้อมูล | ค้นข้อมูล1 | ค้นข้อมูล2 | ค่าสูงสุด-ต่ำสุด |  

Select Sensor -->| 20402 | 4529A | 4529D | 814 | 824 | 834 | 844 | หน้าจอย่อ | 4529 |
ข้อมูลรวม (ยังไม่ได้เลือกรายการ)

IDDateRoom  Temp  Humidity
 175130  2022-12-07 04:40:22  814  27.6  99.8 
 175129  2022-12-07 04:39:12  4529D  28.0  77.0 
 175128  2022-12-07 04:38:53  20402  29.2  70.3 
 175127  2022-12-07 04:29:50  4529A  27.7  92.4 
 175126  2022-12-07 04:21:28  814  27.6  99.8 
 175125  2022-12-07 04:20:13  4529D  28.0  77.2 
 175124  2022-12-07 04:19:45  20402  29.3  70.4 
 175123  2022-12-07 04:10:48  4529A  27.7  92.3 
 175122  2022-12-07 04:02:34  814  27.6  99.8 
 175121  2022-12-07 04:01:13  4529D  28.0  77.5 
 175120  2022-12-07 04:00:39  20402  29.3  70.1 
 175119  2022-12-07 03:51:46  4529A  27.8  92.2 
 175118  2022-12-07 03:43:41  814  27.6  99.7 
 175117  2022-12-07 03:42:14  4529D  28.2  77.0 
 175116  2022-12-07 03:41:33  20402  29.4  70.1 
 175115  2022-12-07 03:32:45  4529A  27.9  92.1 
 175114  2022-12-07 03:24:51  814  27.6  99.7 
 175113  2022-12-07 03:23:14  4529D  28.1  77.4 
 175112  2022-12-07 03:22:25  20402  29.4  70.0 
 175111  2022-12-07 03:13:43  4529A  27.9  92.0 
 175110  2022-12-07 03:05:58  814  27.6  99.8 
 175109  2022-12-07 03:04:16  4529D  28.2  77.3 
 175108  2022-12-07 03:03:18  20402  29.4  70.1 
 175107  2022-12-07 02:54:41  4529A  28.0  91.9 
 175106  2022-12-07 02:47:05  814  27.6  99.8 
 175105  2022-12-07 02:45:20  4529D  28.3  77.0 
 175104  2022-12-07 02:44:14  20402  29.4  70.0 
 175103  2022-12-07 02:35:39  4529A  28.0  91.8 
 175102  2022-12-07 02:28:11  814  27.6  99.8 
 175101  2022-12-07 02:26:19  4529D  28.2  77.5 
 175100  2022-12-07 02:25:04  20402  29.4  70.0 
 175099  2022-12-07 02:16:37  4529A  28.1  91.7 
 175098  2022-12-07 02:09:17  814  27.6  99.9 
 175097  2022-12-07 02:07:20  4529D  28.4  77.3 
 175096  2022-12-07 02:05:56  20402  29.4  69.9 
 175095  2022-12-07 01:57:35  4529A  28.2  91.6 
 175094  2022-12-07 01:50:24  814  27.6  99.9 
 175093  2022-12-07 01:48:21  4529D  28.4  77.3 
 175092  2022-12-07 01:46:49  20402  29.4  70.0 
 175091  2022-12-07 01:38:35  4529A  28.3  91.5 
 175090  2022-12-07 01:31:29  814  27.6  99.8 
 175089  2022-12-07 01:29:21  4529D  28.3  77.5 
 175088  2022-12-07 01:27:41  20402  29.4  70.0 
 175087  2022-12-07 01:19:32  4529A  28.3  91.3 
 175086  2022-12-07 01:12:36  814  27.6  99.8 
 175085  2022-12-07 01:10:22  4529D  28.5  77.2 
 175084  2022-12-07 01:08:36  20402  29.4  70.1 
 175083  2022-12-07 01:00:32  4529A  28.4  91.2 
 175082  2022-12-07 00:53:44  814  27.6  99.9 
 175081  2022-12-07 00:51:22  4529D  28.5  77.5 
 175080  2022-12-07 00:49:25  20402  29.5  70.1 
 175079  2022-12-07 00:41:29  4529A  28.4  91.2 
 175078  2022-12-07 00:34:50  814  27.6  99.8 
 175077  2022-12-07 00:32:22  4529D  28.6  77.7 
 175076  2022-12-07 00:30:17  20402  29.3  70.1 
 175075  2022-12-07 00:22:28  4529A  28.5  91.1 
 175074  2022-12-07 00:15:56  814  27.6  99.9 
 175073  2022-12-07 00:13:25  4529D  28.7  77.3 
 175072  2022-12-07 00:11:09  20402  29.4  69.8 
 175071  2022-12-07 00:03:26  4529A  28.6  91.1 
 175070  2022-12-06 23:57:04  814  27.6  99.8 
 175069  2022-12-06 23:54:24  4529D  28.6  77.7 
 175068  2022-12-06 23:52:01  20402  29.4  69.9 
 175067  2022-12-06 23:44:24  4529A  28.6  91.0 
 175066  2022-12-06 23:38:11  814  27.6  99.8 
 175065  2022-12-06 23:35:26  4529D  28.7  77.6 
 175064  2022-12-06 23:32:54  20402  29.3  70.4 
 175063  2022-12-06 23:25:22  4529A  28.7  90.9 
 175062  2022-12-06 23:19:22  814  27.6  99.8 
 175061  2022-12-06 23:16:28  4529D  28.8  77.3 
 175060  2022-12-06 23:13:46  20402  29.5  70.0 
 175059  2022-12-06 23:06:19  4529A  28.7  90.7 

Data every 20 minute.